Time;durP1;ratioP1;P1;durP2;ratioP2;P2;SDS_P1;SDS_P2;PMS_P1;PMS_P2;Temp;Humidity;BMP_temperature;BMP_pressure;BME280_temperature;BME280_humidity;BME280_pressure;Samples;Min_cycle;Max_cycle;Signal;HPM_P1;HPM_P2
2023/10/08 00:02:27;;;;;;;7.30;3.30;;;;;;;18.68;67.34;101284.41;5068714;28;20421;-59
2023/10/08 00:04:57;;;;;;;6.77;3.60;;;;;;;18.67;67.33;101289.28;5053099;28;20446;-58
2023/10/08 00:07:24;;;;;;;6.53;3.70;;;;;;;18.67;67.55;101289.28;5061594;28;20445;-59
2023/10/08 00:09:51;;;;;;;6.50;3.57;;;;;;;18.68;67.51;101288.09;5049725;28;20438;-60
2023/10/08 00:12:17;;;;;;;6.50;3.27;;;;;;;18.67;67.79;101282.75;5048557;28;20509;-59
2023/10/08 00:14:49;;;;;;;6.50;3.80;;;;;;;18.68;67.37;101272.97;5067261;28;20473;-59
2023/10/08 00:17:15;;;;;;;6.23;3.60;;;;;;;18.67;67.71;101272.09;5068712;28;20745;-59
2023/10/08 00:19:43;;;;;;;7.97;3.63;;;;;;;18.67;67.55;101277.81;5067278;28;20564;-59
2023/10/08 00:22:13;;;;;;;6.87;3.13;;;;;;;18.66;67.66;101270.44;5064933;28;20466;-59
2023/10/08 00:24:41;;;;;;;7.53;3.70;;;;;;;18.68;67.52;101272.97;5062897;28;20429;-60
2023/10/08 00:27:08;;;;;;;6.37;3.90;;;;;;;18.67;67.31;101272.09;5047630;28;20554;-59
2023/10/08 00:29:33;;;;;;;7.50;4.00;;;;;;;18.67;67.28;101277.00;5063640;28;20792;-59
2023/10/08 00:31:59;;;;;;;6.23;3.67;;;;;;;18.66;67.46;101273.31;5067156;28;20478;-59
2023/10/08 00:34:24;;;;;;;7.40;3.63;;;;;;;18.66;67.25;101264.72;5065671;28;20682;-59
2023/10/08 00:36:50;;;;;;;5.47;3.80;;;;;;;18.66;67.28;101263.91;5064237;28;20174;-59
2023/10/08 00:39:25;;;;;;;7.37;3.63;;;;;;;18.65;67.47;101277.38;5065983;28;20179;-59
2023/10/08 00:41:58;;;;;;;7.10;4.00;;;;;;;18.67;67.65;101259.84;5058959;28;20278;-59
2023/10/08 00:44:23;;;;;;;6.57;3.50;;;;;;;18.65;67.65;101265.94;5065222;28;20487;-59
2023/10/08 00:46:49;;;;;;;5.90;3.47;;;;;;;18.65;67.12;101259.34;5067371;28;20864;-59
2023/10/08 00:51:48;;;;;;;9.03;3.97;;;;;;;18.64;67.13;101261.41;5051110;28;20472;-58
2023/10/08 00:54:19;;;;;;;7.77;3.77;;;;;;;18.65;67.21;101262.22;5065089;28;20928;-60
2023/10/08 00:56:49;;;;;;;7.20;3.60;;;;;;;18.65;67.36;101251.63;5030870;28;20426;-59
2023/10/08 00:59:15;;;;;;;5.90;3.73;;;;;;;18.64;67.73;101263.41;5055848;28;20473;-59
2023/10/08 01:01:51;;;;;;;5.37;3.43;;;;;;;18.64;67.78;101272.84;5049145;28;20437;-59
2023/10/08 01:04:23;;;;;;;9.43;3.80;;;;;;;18.64;67.40;101269.13;5057003;28;20440;-58
2023/10/08 01:07:01;;;;;;;6.40;3.90;;;;;;;18.64;67.62;101275.72;5068462;28;20547;-60
2023/10/08 01:09:37;;;;;;;8.30;3.97;;;;;;;18.64;67.45;101272.84;5067912;28;20907;-59
2023/10/08 01:12:14;;;;;;;5.70;3.57;;;;;;;18.63;67.16;101265.47;5068057;28;20441;-60
2023/10/08 01:14:43;;;;;;;5.93;3.33;;;;;;;18.65;67.27;101265.06;5066626;28;20836;-58
2023/10/08 01:17:13;;;;;;;6.13;3.50;;;;;;;18.63;67.78;101254.03;5065879;28;20966;-58
2023/10/08 01:19:40;;;;;;;6.70;3.70;;;;;;;18.63;67.76;101239.72;5060801;28;20530;-59
2023/10/08 01:22:16;;;;;;;5.97;3.40;;;;;;;18.64;67.41;101249.97;5048220;28;20434;-58
2023/10/08 01:24:43;;;;;;;5.70;2.90;;;;;;;18.63;67.33;101248.31;5046964;28;20930;-60
2023/10/08 01:27:11;;;;;;;6.07;3.53;;;;;;;18.63;67.83;101256.88;5046628;28;20454;-59
2023/10/08 01:29:43;;;;;;;7.87;3.93;;;;;;;18.61;67.49;101256.38;5046946;28;21069;-58
2023/10/08 01:32:11;;;;;;;5.90;3.60;;;;;;;18.63;67.80;101258.91;5046903;28;20888;-58
2023/10/08 01:34:37;;;;;;;5.73;3.20;;;;;;;18.63;67.22;101253.19;5047634;28;20426;-59
2023/10/08 01:37:08;;;;;;;5.77;3.27;;;;;;;18.63;67.61;101259.75;5049540;28;20482;-60
2023/10/08 01:39:36;;;;;;;5.10;3.37;;;;;;;18.63;68.24;101256.03;5058432;28;20456;-59
2023/10/08 01:42:01;;;;;;;5.80;3.63;;;;;;;18.63;67.43;101256.03;5067780;28;20422;-59
2023/10/08 01:44:29;;;;;;;6.27;3.40;;;;;;;18.63;68.01;101265.47;5066481;28;20434;-59
2023/10/08 01:46:58;;;;;;;5.83;3.70;;;;;;;18.61;67.81;101256.38;5054656;28;20207;-59
2023/10/08 01:49:29;;;;;;;6.57;3.53;;;;;;;18.62;67.35;101258.06;5050337;28;20454;-59
2023/10/08 01:51:54;;;;;;;6.00;3.47;;;;;;;18.62;67.48;101248.66;5062106;28;20432;-59
2023/10/08 01:54:21;;;;;;;5.53;3.10;;;;;;;18.61;67.22;101244.94;5065783;28;20504;-59
2023/10/08 01:56:46;;;;;;;5.93;3.40;;;;;;;18.60;68.18;101249.00;5052112;28;20546;-59
2023/10/08 01:59:13;;;;;;;6.60;3.40;;;;;;;18.63;67.40;101253.19;5055291;28;20465;-59
2023/10/08 02:01:42;;;;;;;6.23;3.77;;;;;;;18.62;68.01;101251.50;5067618;28;20167;-59
2023/10/08 02:04:09;;;;;;;5.47;3.20;;;;;;;18.60;67.99;101243.28;5064445;28;20428;-59
2023/10/08 02:06:35;;;;;;;11.03;3.60;;;;;;;18.61;67.53;101250.66;5068314;28;20909;-59
2023/10/08 02:09:07;;;;;;;5.70;3.53;;;;;;;18.62;67.64;101257.25;5071191;28;20440;-59
2023/10/08 02:11:50;;;;;;;6.00;3.40;;;;;;;18.60;67.32;101246.16;5069988;28;20179;-59
2023/10/08 02:14:16;;;;;;;5.03;3.17;;;;;;;18.61;67.37;101244.13;5067743;28;20447;-58
2023/10/08 02:16:45;;;;;;;6.30;3.30;;;;;;;18.62;67.88;101255.19;5068906;28;20432;-58
2023/10/08 02:19:10;;;;;;;5.57;3.30;;;;;;;18.60;67.44;101249.00;5068918;28;20460;-58
2023/10/08 02:21:39;;;;;;;5.47;3.30;;;;;;;18.61;67.51;101253.53;5067610;28;20448;-59
2023/10/08 02:24:07;;;;;;;5.70;3.80;;;;;;;18.61;67.35;101249.84;5068808;28;20306;-58
2023/10/08 02:26:34;;;;;;;5.27;3.50;;;;;;;18.62;67.11;101245.78;5052993;28;20868;-59
2023/10/08 02:29:00;;;;;;;6.57;3.40;;;;;;;18.60;67.89;101242.44;5055434;28;20428;-59
2023/10/08 02:31:25;;;;;;;4.90;2.90;;;;;;;18.61;67.97;101229.84;5066344;28;20472;-60
2023/10/08 02:33:51;;;;;;;5.80;3.00;;;;;;;18.60;67.43;101236.72;5068506;28;20244;-60
2023/10/08 02:36:16;;;;;;;5.10;3.20;;;;;;;18.60;67.27;101237.56;5070057;28;20297;-59
2023/10/08 02:38:42;;;;;;;5.40;3.53;;;;;;;18.60;67.35;101237.56;5069355;28;20171;-59
2023/10/08 02:41:07;;;;;;;6.20;3.60;;;;;;;18.59;67.46;101230.19;5069603;28;20596;-59
2023/10/08 02:43:42;;;;;;;4.50;2.80;;;;;;;18.59;67.34;101227.31;5070989;28;20167;-58
2023/10/08 02:46:10;;;;;;;6.40;3.70;;;;;;;18.60;67.40;101231.84;5071028;28;20165;-58
2023/10/08 02:48:35;;;;;;;7.40;3.53;;;;;;;18.60;67.47;101237.56;5070593;28;20464;-59
2023/10/08 02:51:06;;;;;;;5.20;2.93;;;;;;;18.59;67.21;101235.91;5069610;28;20441;-59
2023/10/08 02:53:32;;;;;;;5.47;3.17;;;;;;;18.59;67.92;101238.78;5070335;28;20281;-58
2023/10/08 02:55:58;;;;;;;6.50;3.50;;;;;;;18.58;67.50;101234.25;5069555;28;20433;-59
2023/10/08 02:58:25;;;;;;;7.07;3.90;;;;;;;18.57;67.93;101223.97;5066878;28;20179;-58
2023/10/08 03:00:53;;;;;;;5.10;3.20;;;;;;;18.59;67.42;101230.19;5068784;28;20179;-60
2023/10/08 03:03:18;;;;;;;5.40;3.23;;;;;;;18.60;67.62;101236.72;5070469;28;20443;-59
2023/10/08 03:05:48;;;;;;;5.70;3.37;;;;;;;18.59;67.28;101229.34;5069893;28;20413;-58
2023/10/08 03:08:19;;;;;;;6.60;3.00;;;;;;;18.58;67.77;101222.81;5064748;28;20212;-59
2023/10/08 03:10:44;;;;;;;6.43;3.80;;;;;;;18.59;67.66;101224.47;5049185;28;20418;-59
2023/10/08 03:13:12;;;;;;;5.30;3.30;;;;;;;18.58;68.01;101228.53;5048980;28;20421;-59
2023/10/08 03:15:41;;;;;;;5.60;3.40;;;;;;;18.58;67.82;101222.81;5048486;28;20625;-58
2023/10/08 03:18:14;;;;;;;5.40;3.30;;;;;;;18.58;67.43;101222.81;5069044;28;20908;-59
2023/10/08 03:20:45;;;;;;;4.80;3.10;;;;;;;18.57;68.10;101226.03;5051217;28;20541;-58
2023/10/08 03:23:13;;;;;;;5.60;3.13;;;;;;;18.57;67.67;101214.56;5065373;28;20461;-59
2023/10/08 03:25:41;;;;;;;6.13;3.03;;;;;;;18.56;67.47;101218.63;5069419;28;20433;-59
2023/10/08 03:28:12;;;;;;;5.20;3.30;;;;;;;18.57;67.30;101221.13;5059184;28;20445;-58
2023/10/08 03:30:47;;;;;;;5.40;3.03;;;;;;;18.59;67.14;101223.63;5070035;28;20497;-60
2023/10/08 03:33:21;;;;;;;5.30;3.00;;;;;;;18.57;67.37;101226.84;5069431;28;20416;-58
2023/10/08 03:35:48;;;;;;;5.47;3.20;;;;;;;18.57;67.33;101226.03;5070127;28;20420;-60
2023/10/08 03:41:29;;;;;;;4.90;2.70;;;;;;;18.57;68.15;101223.97;5026511;28;20447;-58
2023/10/08 03:44:16;;;;;;;5.40;3.00;;;;;;;18.56;67.35;101218.63;5025435;28;20453;-59
2023/10/08 03:46:42;;;;;;;5.83;3.50;;;;;;;18.56;67.82;101219.44;5038205;28;20932;-59
2023/10/08 03:51:46;;;;;;;5.23;3.13;;;;;;;18.55;67.85;101226.38;5051140;28;20745;-60
2023/10/08 03:56:45;;;;;;;4.53;2.80;;;;;;;18.55;67.83;101232.09;5050606;28;20202;-60
2023/10/08 03:59:33;;;;;;;4.60;2.80;;;;;;;18.56;67.42;101224.34;5067367;28;20441;-60
2023/10/08 04:02:08;;;;;;;4.83;2.97;;;;;;;18.55;67.64;101226.38;5066873;28;20417;-59
2023/10/08 04:05:19;;;;;;;6.10;2.90;;;;;;;18.55;67.33;101220.66;5052578;28;20428;-60
2023/10/08 04:07:45;;;;;;;5.20;2.93;;;;;;;18.54;67.79;101219.00;5049084;28;20548;-59
2023/10/08 04:12:43;;;;;;;4.80;3.03;;;;;;;18.55;67.80;101226.38;5066770;28;20437;-58
2023/10/08 04:15:09;;;;;;;4.80;3.30;;;;;;;18.54;67.46;101223.88;5045867;28;20252;-59
2023/10/08 04:17:43;;;;;;;6.47;3.30;;;;;;;18.54;67.92;101224.72;5047302;28;20410;-59
2023/10/08 04:20:32;;;;;;;4.40;3.00;;;;;;;18.54;67.29;101221.84;5063432;28;20629;-58
2023/10/08 04:23:02;;;;;;;5.03;2.83;;;;;;;18.53;67.61;101217.31;5064275;28;20433;-59
2023/10/08 04:25:30;;;;;;;5.00;3.20;;;;;;;18.52;67.44;101218.50;5067290;28;20903;-58
2023/10/08 04:27:59;;;;;;;5.10;3.30;;;;;;;18.54;67.37;101203.84;5067589;28;20472;-58
2023/10/08 04:30:35;;;;;;;4.93;3.07;;;;;;;18.53;67.27;101205.88;5064749;28;20448;-58
2023/10/08 04:33:07;;;;;;;4.10;2.53;;;;;;;18.53;67.17;101213.63;5051344;28;20417;-59
2023/10/08 04:35:36;;;;;;;5.30;3.03;;;;;;;18.52;67.67;101206.25;5047311;28;20556;-60
2023/10/08 04:38:08;;;;;;;5.87;2.73;;;;;;;18.52;67.49;101201.34;5066858;28;20493;-58
2023/10/08 04:40:47;;;;;;;6.60;3.40;;;;;;;18.53;67.39;101202.19;5067482;28;20422;-59
2023/10/08 04:43:15;;;;;;;6.93;3.00;;;;;;;18.53;67.61;101203.03;5067648;28;20949;-59
2023/10/08 04:45:41;;;;;;;6.87;2.80;;;;;;;18.53;67.78;101202.19;5066819;28;20429;-59
2023/10/08 04:48:18;;;;;;;5.53;3.50;;;;;;;18.52;67.47;101201.34;5068189;28;20437;-58
2023/10/08 04:50:44;;;;;;;5.27;2.57;;;;;;;18.52;67.73;101201.34;5058097;28;20186;-58
2023/10/08 04:53:10;;;;;;;4.90;3.17;;;;;;;18.52;67.37;101192.75;5068442;28;20425;-58
2023/10/08 04:55:35;;;;;;;4.10;2.70;;;;;;;18.53;67.75;101200.16;5055909;28;20176;-58
2023/10/08 04:58:05;;;;;;;5.80;3.10;;;;;;;18.52;67.73;101203.38;5062654;28;20311;-58
2023/10/08 05:00:42;;;;;;;5.13;2.50;;;;;;;18.52;67.17;101201.34;5066594;28;20703;-59
2023/10/08 05:03:14;;;;;;;5.30;3.10;;;;;;;18.52;67.25;101203.38;5047253;28;20426;-59
2023/10/08 05:06:02;;;;;;;5.90;3.20;;;;;;;18.52;67.45;101198.47;5048689;28;20415;-58
2023/10/08 05:08:47;;;;;;;4.47;2.73;;;;;;;18.52;67.77;101207.06;5064955;28;20938;-59
2023/10/08 05:11:24;;;;;;;5.53;3.07;;;;;;;18.51;67.71;101208.25;5067161;28;20420;-58
2023/10/08 05:14:05;;;;;;;5.37;2.97;;;;;;;18.51;67.24;101202.53;5066989;28;20432;-58
2023/10/08 05:16:44;;;;;;;6.07;3.03;;;;;;;18.51;68.08;101207.44;5063104;28;20433;-58
2023/10/08 05:19:47;;;;;;;4.57;2.87;;;;;;;18.51;67.82;101204.59;5067810;28;20841;-59
2023/10/08 05:38:22;;;;;;;4.90;3.10;;;;;;;18.50;68.17;101215.19;5064931;28;20402;-59
2023/10/08 05:49:02;;;;;;;4.67;2.80;;;;;;;18.48;67.08;101223.28;5047215;28;20294;-58
2023/10/08 05:54:36;;;;;;;4.40;2.40;;;;;;;18.50;67.48;101234.34;5063428;28;20437;-59
2023/10/08 05:59:38;;;;;;;4.90;2.80;;;;;;;18.49;67.13;101238.41;5064341;28;20452;-58
2023/10/08 06:02:19;;;;;;;4.83;2.83;;;;;;;18.49;67.65;101246.97;5061068;28;21054;-60
2023/10/08 06:07:47;;;;;;;6.83;2.60;;;;;;;18.49;67.22;101246.97;5059524;28;20837;-58
2023/10/08 06:10:26;;;;;;;5.57;3.20;;;;;;;18.49;67.59;101246.97;5066263;28;20426;-58
2023/10/08 06:13:01;;;;;;;4.70;2.90;;;;;;;18.48;67.79;101245.31;5066879;28;20533;-58
2023/10/08 06:15:44;;;;;;;5.20;2.63;;;;;;;18.48;67.26;101245.31;5057462;28;20417;-59
2023/10/08 06:18:10;;;;;;;5.23;3.07;;;;;;;18.48;67.52;101243.31;5047440;28;20858;-58
2023/10/08 06:20:39;;;;;;;5.50;3.10;;;;;;;18.48;67.27;101246.16;5066019;28;20854;-59
2023/10/08 06:23:07;;;;;;;5.63;2.93;;;;;;;18.48;67.36;101242.47;5052842;28;20449;-59
2023/10/08 06:25:33;;;;;;;4.63;2.63;;;;;;;18.47;67.43;101244.47;5047407;28;20414;-59
2023/10/08 06:27:59;;;;;;;5.30;2.33;;;;;;;18.47;67.75;101241.63;5064856;28;20832;-59
2023/10/08 06:30:29;;;;;;;4.63;2.93;;;;;;;18.49;67.42;101244.13;5063430;28;20454;-59
2023/10/08 06:32:56;;;;;;;4.53;2.77;;;;;;;18.47;67.64;101241.63;5061457;28;20721;-59
2023/10/08 06:35:25;;;;;;;4.33;2.50;;;;;;;18.47;68.04;101235.06;5064563;28;20449;-59
2023/10/08 06:37:54;;;;;;;4.23;2.70;;;;;;;18.47;67.73;101235.06;5052467;28;20425;-59
2023/10/08 06:43:24;;;;;;;5.00;2.67;;;;;;;18.47;67.58;101244.47;5065658;28;20627;-60
2023/10/08 06:45:52;;;;;;;4.10;2.60;;;;;;;18.47;67.59;101244.47;5059397;28;20567;-59
2023/10/08 06:48:19;;;;;;;4.90;3.00;;;;;;;18.48;67.55;101245.31;5062764;28;20948;-60
2023/10/08 06:50:45;;;;;;;5.27;2.77;;;;;;;18.47;67.61;101253.06;5065776;28;20425;-60
2023/10/08 06:53:13;;;;;;;5.07;2.70;;;;;;;18.47;67.60;101258.78;5068529;28;20928;-59
2023/10/08 06:55:42;;;;;;;4.03;2.30;;;;;;;18.46;67.49;101262.00;5054993;28;20885;-59
2023/10/08 06:58:14;;;;;;;4.50;2.43;;;;;;;18.46;67.35;101262.81;5065241;28;20523;-59
2023/10/08 07:00:40;;;;;;;4.20;2.53;;;;;;;18.47;67.98;101272.25;5069292;28;20448;-59
2023/10/08 07:03:15;;;;;;;5.00;2.87;;;;;;;18.46;67.43;101271.41;5068134;28;20437;-59
2023/10/08 07:05:53;;;;;;;4.57;2.40;;;;;;;18.46;67.35;101276.31;5066062;28;20186;-59
2023/10/08 07:08:23;;;;;;;5.37;2.77;;;;;;;18.48;66.78;101279.63;5057812;28;20449;-59
2023/10/08 07:10:49;;;;;;;4.50;2.53;;;;;;;18.47;67.22;101278.78;5054092;28;20898;-60
2023/10/08 07:13:17;;;;;;;3.10;2.03;;;;;;;18.47;67.35;101273.06;5065442;28;20433;-59
2023/10/08 07:15:44;;;;;;;4.07;2.53;;;;;;;18.46;68.12;101274.25;5070251;28;20449;-59
2023/10/08 07:18:12;;;;;;;5.53;2.80;;;;;;;18.46;67.48;101277.13;5066978;28;20460;-60
2023/10/08 07:20:39;;;;;;;4.20;2.70;;;;;;;18.45;67.39;101281.19;5049963;28;20437;-59
2023/10/08 07:23:09;;;;;;;4.60;2.50;;;;;;;18.47;67.61;101277.97;5054742;28;20433;-58
2023/10/08 07:25:38;;;;;;;4.97;2.40;;;;;;;18.45;67.77;101286.91;5054051;28;20491;-59
2023/10/08 07:28:12;;;;;;;4.50;2.70;;;;;;;18.46;67.38;101291.41;5059159;28;20476;-59
2023/10/08 07:30:44;;;;;;;4.27;2.40;;;;;;;18.47;67.92;101295.94;5049628;28;20426;-59
2023/10/08 07:33:17;;;;;;;4.20;2.50;;;;;;;18.45;67.90;101288.91;5055762;28;20448;-60
2023/10/08 07:35:52;;;;;;;5.13;2.80;;;;;;;18.46;67.63;101287.75;5049810;28;20434;-59
2023/10/08 07:38:17;;;;;;;4.10;2.43;;;;;;;18.44;67.94;101290.97;5055591;28;20441;-60
2023/10/08 07:40:44;;;;;;;5.77;3.10;;;;;;;18.46;67.22;101293.47;5049738;28;20433;-58
2023/10/08 07:43:10;;;;;;;4.50;2.20;;;;;;;18.44;67.98;101296.66;5056264;28;20187;-59
2023/10/08 07:45:36;;;;;;;5.77;2.97;;;;;;;18.45;67.77;101286.91;5060722;28;20425;-59
2023/10/08 07:48:07;;;;;;;3.37;2.20;;;;;;;18.45;67.44;101298.34;5054656;28;20829;-59
2023/10/08 07:50:34;;;;;;;4.90;2.60;;;;;;;18.45;67.66;101297.50;5053097;28;20190;-59
2023/10/08 07:52:59;;;;;;;4.40;2.13;;;;;;;18.45;67.53;101298.34;5055694;28;20457;-59
2023/10/08 07:55:25;;;;;;;4.53;2.67;;;;;;;18.45;67.87;101297.50;5055598;28;20458;-60
2023/10/08 07:57:50;;;;;;;3.93;2.43;;;;;;;18.44;67.42;101295.81;5049358;28;20175;-60
2023/10/08 08:00:22;;;;;;;3.90;2.13;;;;;;;18.45;67.23;101298.34;5049753;28;20187;-59
2023/10/08 08:02:49;;;;;;;5.50;2.97;;;;;;;18.44;67.46;101296.66;5051734;28;20222;-59
2023/10/08 08:05:16;;;;;;;3.60;1.80;;;;;;;18.45;67.64;101309.78;5048260;28;20426;-59
2023/10/08 08:07:45;;;;;;;4.60;2.77;;;;;;;18.44;67.63;101302.41;5063044;28;20465;-58
2023/10/08 08:10:11;;;;;;;5.03;2.93;;;;;;;18.45;67.44;101303.22;5048978;28;20837;-59
2023/10/08 08:12:37;;;;;;;4.30;2.40;;;;;;;18.45;68.03;101315.50;5054478;28;20440;-58
2023/10/08 08:15:14;;;;;;;4.13;2.73;;;;;;;18.44;67.30;101319.53;5055209;28;20268;-58
2023/10/08 08:17:43;;;;;;;3.33;2.23;;;;;;;18.44;67.60;101318.69;5049173;28;20433;-59
2023/10/08 08:20:18;;;;;;;3.57;2.07;;;;;;;18.45;67.77;101321.22;5062356;28;20469;-59
2023/10/08 08:22:50;;;;;;;4.30;2.43;;;;;;;18.46;67.26;101328.59;5062628;28;21217;-59
2023/10/08 08:25:26;;;;;;;4.20;2.60;;;;;;;18.45;67.74;101326.09;5051464;28;20434;-59
2023/10/08 08:27:52;;;;;;;4.77;2.40;;;;;;;18.45;67.07;101326.94;5059216;28;20468;-59
2023/10/08 08:30:19;;;;;;;3.90;2.30;;;;;;;18.45;67.78;101326.94;5061614;28;20785;-59
2023/10/08 08:32:49;;;;;;;4.00;2.47;;;;;;;18.45;67.83;101329.78;5067703;28;20464;-60
2023/10/08 08:35:17;;;;;;;3.80;2.30;;;;;;;18.46;67.77;101331.44;5049633;28;20453;-59
2023/10/08 08:37:43;;;;;;;4.33;2.70;;;;;;;18.46;67.83;101339.22;5062840;28;20436;-60
2023/10/08 08:40:09;;;;;;;3.47;2.27;;;;;;;18.46;67.83;101334.31;5051984;28;20434;-59
2023/10/08 08:42:38;;;;;;;4.07;2.40;;;;;;;18.47;67.31;101340.88;5050252;28;20472;-59
2023/10/08 08:45:08;;;;;;;4.20;2.50;;;;;;;18.45;67.45;101340.38;5061460;28;20418;-60
2023/10/08 08:47:34;;;;;;;8.93;3.00;;;;;;;18.46;67.23;101337.16;5047438;28;20454;-59
2023/10/08 08:50:08;;;;;;;4.70;2.33;;;;;;;18.45;67.51;101338.38;5053898;28;20512;-59
2023/10/08 08:52:33;;;;;;;4.37;2.50;;;;;;;18.45;67.54;101335.50;5046124;28;20472;-60
2023/10/08 08:55:03;;;;;;;4.80;3.00;;;;;;;18.45;67.36;101338.38;5056708;28;20430;-59
2023/10/08 08:57:28;;;;;;;3.70;2.27;;;;;;;18.45;67.65;101341.22;5062403;28;21070;-59
2023/10/08 08:59:56;;;;;;;5.73;2.47;;;;;;;18.45;68.00;101346.94;5062683;28;20466;-58
2023/10/08 09:02:22;;;;;;;3.80;2.10;;;;;;;18.45;67.49;101337.53;5051327;28;20903;-60
2023/10/08 09:04:48;;;;;;;5.13;2.47;;;;;;;18.45;67.42;101349.81;5066942;28;20440;-59
2023/10/08 09:07:14;;;;;;;4.47;2.17;;;;;;;18.47;67.56;101358.03;5064061;28;20445;-59
2023/10/08 09:09:39;;;;;;;3.13;2.03;;;;;;;18.46;66.89;101350.66;5053854;28;20461;-58
2023/10/08 09:12:05;;;;;;;4.13;2.40;;;;;;;18.45;67.97;101349.81;5047159;28;20183;-59
2023/10/08 09:14:33;;;;;;;3.83;2.10;;;;;;;18.44;67.48;101359.56;5046691;28;20215;-58
2023/10/08 09:17:00;;;;;;;5.97;2.70;;;;;;;18.45;67.39;101351.81;5047210;28;20245;-60
2023/10/08 09:19:26;;;;;;;4.30;2.23;;;;;;;18.45;67.21;101355.53;5061173;28;20968;-59
2023/10/08 09:22:12;;;;;;;5.10;2.40;;;;;;;18.45;67.47;101351.81;5066471;28;20900;-58
2023/10/08 09:24:38;;;;;;;4.23;2.47;;;;;;;18.46;67.83;101356.38;5053580;28;20908;-60
2023/10/08 09:27:08;;;;;;;3.77;2.30;;;;;;;18.46;67.19;101340.03;5055748;28;21170;-60
2023/10/08 09:29:39;;;;;;;5.13;2.20;;;;;;;18.45;67.42;101341.22;5053049;28;21262;-59
2023/10/08 09:32:05;;;;;;;3.20;2.20;;;;;;;18.46;67.25;101322.88;5064291;28;20421;-59
2023/10/08 09:34:31;;;;;;;4.67;2.50;;;;;;;18.46;67.93;101327.78;5058342;28;20430;-59
2023/10/08 09:36:59;;;;;;;3.93;2.40;;;;;;;18.46;67.46;101317.16;5058350;28;20441;-59
2023/10/08 09:39:26;;;;;;;6.10;2.80;;;;;;;18.46;67.47;101322.88;5045645;28;20179;-59
2023/10/08 09:41:57;;;;;;;3.53;2.20;;;;;;;18.46;67.16;101324.91;5045414;28;20421;-59
2023/10/08 09:44:26;;;;;;;4.80;2.67;;;;;;;18.47;67.57;101332.31;5064193;28;20916;-59
2023/10/08 09:46:54;;;;;;;4.67;3.03;;;;;;;18.47;67.31;101330.25;5049504;28;21030;-60
2023/10/08 09:49:36;;;;;;;4.30;2.57;;;;;;;18.47;67.60;101335.16;5047992;28;20509;-59
2023/10/08 09:52:02;;;;;;;5.00;2.57;;;;;;;18.47;67.90;101335.97;5053030;28;20517;-59
2023/10/08 09:54:52;;;;;;;3.23;2.17;;;;;;;18.46;67.85;101345.75;5057223;28;20431;-59
2023/10/08 09:57:18;;;;;;;3.97;2.10;;;;;;;18.47;67.86;101335.97;5046448;28;20444;-59
2023/10/08 09:59:44;;;;;;;3.70;2.10;;;;;;;18.49;67.18;101329.91;5054553;28;21425;-59
2023/10/08 10:02:10;;;;;;;3.93;2.40;;;;;;;18.47;67.96;101330.25;5026382;28;20442;-58
2023/10/08 10:04:35;;;;;;;5.83;2.80;;;;;;;18.48;68.18;101331.09;5059599;28;20837;-59
2023/10/08 10:07:12;;;;;;;4.07;2.30;;;;;;;18.47;67.35;101333.13;5050396;28;20426;-59
2023/10/08 10:09:38;;;;;;;4.70;2.43;;;;;;;18.48;68.22;101326.22;5051718;28;20195;-59
2023/10/08 10:12:09;;;;;;;3.60;1.93;;;;;;;18.48;67.94;101325.38;5058930;28;20825;-59
2023/10/08 10:14:45;;;;;;;5.13;2.67;;;;;;;18.49;67.80;101327.03;5041209;28;20713;-59
2023/10/08 10:17:22;;;;;;;4.67;2.57;;;;;;;18.47;67.34;101321.69;5052802;28;20483;-59
2023/10/08 10:19:59;;;;;;;6.37;2.90;;;;;;;18.48;67.64;101322.53;5059526;28;20453;-59
2023/10/08 10:22:29;;;;;;;4.00;2.37;;;;;;;18.48;67.69;101326.22;5051376;28;20469;-59
2023/10/08 10:24:54;;;;;;;4.87;2.20;;;;;;;18.48;67.76;101325.38;5060152;28;20426;-59
2023/10/08 10:27:21;;;;;;;5.30;2.43;;;;;;;18.49;67.95;101339.34;5050509;28;20452;-58
2023/10/08 10:29:48;;;;;;;3.43;1.97;;;;;;;18.48;67.90;101326.22;5065550;28;20198;-60
2023/10/08 10:32:16;;;;;;;3.83;2.40;;;;;;;18.49;67.29;101322.16;5051298;28;20888;-59
2023/10/08 10:34:43;;;;;;;4.27;2.33;;;;;;;18.50;67.33;101318.13;5050301;28;20948;-58
2023/10/08 10:37:09;;;;;;;5.20;2.37;;;;;;;18.50;67.32;101320.97;5065532;28;21364;-59
2023/10/08 10:39:39;;;;;;;3.63;2.20;;;;;;;18.50;68.10;101314.41;5051460;28;20426;-59
2023/10/08 10:42:06;;;;;;;3.53;2.10;;;;;;;18.51;67.54;101314.06;5049085;28;20906;-59
2023/10/08 10:44:32;;;;;;;4.33;2.13;;;;;;;18.50;68.03;101317.28;5064932;28;20524;-58
2023/10/08 10:57:55;;;;;;;3.60;2.10;;;;;;;18.53;67.35;101310.84;5059621;28;20481;-60
2023/10/08 11:03:02;;;;;;;3.50;2.50;;;;;;;18.53;67.75;101305.13;5068912;28;20440;-59
2023/10/08 11:05:31;;;;;;;4.93;2.33;;;;;;;18.54;67.54;101312.50;5054844;28;20827;-59
2023/10/08 11:08:05;;;;;;;7.03;2.80;;;;;;;18.54;67.85;101307.66;5053996;28;20468;-59
2023/10/08 11:10:34;;;;;;;4.63;2.67;;;;;;;18.56;67.74;101304.44;5065778;28;20441;-59
2023/10/08 11:13:01;;;;;;;7.43;2.73;;;;;;;18.55;67.41;101300.72;5065342;28;20506;-59
2023/10/08 11:15:37;;;;;;;4.73;2.20;;;;;;;18.55;67.54;101297.00;5052187;28;20556;-58
2023/10/08 11:18:15;;;;;;;4.10;2.00;;;;;;;18.56;67.64;101298.72;5067169;28;20429;-59
2023/10/08 11:20:40;;;;;;;5.77;2.53;;;;;;;18.56;67.41;101298.72;5057679;28;20782;-59
2023/10/08 11:23:18;;;;;;;4.37;2.40;;;;;;;18.56;67.62;101288.09;5060190;28;20560;-57
2023/10/08 11:26:02;;;;;;;5.80;2.40;;;;;;;18.59;67.07;101298.81;5066583;28;20266;-57
2023/10/08 11:28:47;;;;;;;4.77;2.50;;;;;;;18.59;67.28;101295.13;5060163;28;20572;-59
2023/10/08 11:31:14;;;;;;;4.00;2.47;;;;;;;18.59;68.04;101290.25;5048003;28;20952;-59
2023/10/08 11:33:53;;;;;;;5.90;3.33;;;;;;;18.58;67.65;101285.72;5054177;28;20581;-59
2023/10/08 11:36:19;;;;;;;4.30;2.30;;;;;;;18.57;67.12;101277.50;5057902;28;20847;-59
2023/10/08 11:38:50;;;;;;;4.37;2.30;;;;;;;18.59;67.46;101281.66;5066034;28;20410;-59
2023/10/08 11:41:23;;;;;;;3.70;2.10;;;;;;;18.60;68.02;101266.16;5060493;28;20434;-59
2023/10/08 11:43:53;;;;;;;4.93;2.90;;;;;;;18.59;67.37;101261.66;5048876;28;20434;-59
2023/10/08 11:46:25;;;;;;;4.13;2.20;;;;;;;18.60;67.14;101266.16;5055902;28;20449;-58
2023/10/08 11:48:51;;;;;;;3.87;2.23;;;;;;;18.60;67.43;101256.75;5049316;28;20466;-59
2023/10/08 11:51:17;;;;;;;4.30;2.10;;;;;;;18.62;67.81;101257.25;5051507;28;20478;-59
2023/10/08 11:53:44;;;;;;;3.97;2.17;;;;;;;18.63;67.31;101256.03;5057260;28;20190;-59
2023/10/08 11:56:15;;;;;;;4.87;2.40;;;;;;;18.62;67.13;101240.88;5065697;28;20190;-59
2023/10/08 11:58:44;;;;;;;5.43;3.00;;;;;;;18.62;67.30;101245.78;5069309;28;20964;-58
2023/10/08 12:01:15;;;;;;;5.17;2.60;;;;;;;18.66;67.25;101249.63;5055731;28;20441;-58
2023/10/08 12:03:44;;;;;;;4.70;2.20;;;;;;;18.65;67.69;101245.91;5054511;28;20433;-59
2023/10/08 12:06:15;;;;;;;3.93;2.00;;;;;;;18.65;67.41;101248.75;5061516;28;20429;-59
2023/10/08 12:08:41;;;;;;;4.43;2.33;;;;;;;18.65;67.57;101243.03;5058504;28;20453;-58
2023/10/08 12:11:11;;;;;;;4.77;2.33;;;;;;;18.66;67.16;101230.41;5063462;28;20492;-57
2023/10/08 12:13:44;;;;;;;4.30;2.20;;;;;;;18.67;67.48;101240.66;5053986;28;20542;-58
2023/10/08 12:16:20;;;;;;;7.53;2.47;;;;;;;18.65;67.26;101240.19;5054227;28;20434;-59
2023/10/08 12:18:48;;;;;;;4.90;2.80;;;;;;;18.65;67.08;101237.31;5051108;28;20476;-59
2023/10/08 12:21:15;;;;;;;4.13;2.13;;;;;;;18.68;67.38;101236.63;5061550;28;20442;-59
2023/10/08 12:23:43;;;;;;;3.90;2.20;;;;;;;18.67;67.27;101234.94;5047580;28;20434;-59
2023/10/08 12:26:08;;;;;;;3.60;2.27;;;;;;;18.67;67.76;101242.69;5046848;28;20406;-59
2023/10/08 12:28:34;;;;;;;5.43;2.70;;;;;;;18.68;67.10;101239.47;5053880;28;20551;-59
2023/10/08 12:31:00;;;;;;;5.90;2.47;;;;;;;18.69;68.00;101244.00;5066416;28;20221;-59
2023/10/08 12:33:26;;;;;;;4.23;2.43;;;;;;;18.70;67.02;101242.81;5063188;28;20248;-59
2023/10/08 12:35:55;;;;;;;4.60;2.37;;;;;;;18.70;67.05;101230.50;5065771;28;21221;-59
2023/10/08 12:38:22;;;;;;;3.73;2.03;;;;;;;18.70;66.95;101231.34;5063263;28;20179;-59
2023/10/08 12:40:52;;;;;;;5.67;2.70;;;;;;;18.69;67.33;101228.84;5064692;28;21004;-59